Terminal Aerodrome Forecast
Issued by NWS

Home | Current Version | Previous Version | Graphics & Text | Print | Product List | Glossary On
Versions: 1 2 3 4 5 6 7 8 9 10 11 12 13 14 15 16
000
FTUS43 KICT 221603 AAA
TAFHUT
TAF AMD
KHUT 221603Z 2216/2312 23009KT P6SM VCSH OVC080
      TEMPO 2217/2221 5SM -SHRA BKN035 OVC060
     FM222200 20007KT P6SM SCT100
     FM230800 33011KT P6SM VCSH OVC050=

USA.gov is the U.S. government's official web portal to all federal, state and local government web resources and services.